createdAt,value
2017-05-06T00:00:48.253Z,99.99
2017-05-06T00:01:49.541Z,99.99
2017-05-06T00:02:50.850Z,99.99
2017-05-06T00:03:52.058Z,99.99
2017-05-06T00:04:53.292Z,99.99
2017-05-06T00:05:54.530Z,99.99
2017-05-06T00:06:55.825Z,99.99
2017-05-06T00:07:57.056Z,99.99
2017-05-06T00:08:58.348Z,99.99
2017-05-06T00:09:59.584Z,99.99
2017-05-06T00:11:00.852Z,99.99
2017-05-06T00:12:02.098Z,99.99
2017-05-06T00:13:03.402Z,99.99
2017-05-06T00:14:04.672Z,99.99
2017-05-06T00:15:05.939Z,99.99
2017-05-06T00:16:07.186Z,99.99
2017-05-06T00:17:08.444Z,99.99
2017-05-06T00:18:09.710Z,99.99
2017-05-06T00:19:11.161Z,99.99
2017-05-06T00:20:12.425Z,99.99
2017-05-06T00:21:13.684Z,99.99
2017-05-06T00:22:14.966Z,99.99
2017-05-06T00:23:16.199Z,99.99
2017-05-06T00:24:17.456Z,99.99
2017-05-06T00:25:18.722Z,99.99
2017-05-06T00:26:20.030Z,99.99
2017-05-06T00:27:21.316Z,99.99
2017-05-06T00:28:22.553Z,99.99
2017-05-06T00:29:23.811Z,99.99
2017-05-06T00:30:25.071Z,99.99
2017-05-06T00:31:26.340Z,99.99
2017-05-06T00:32:27.648Z,99.99
2017-05-06T00:33:28.886Z,99.99
2017-05-06T00:34:30.124Z,99.99
2017-05-06T00:35:31.412Z,99.99
2017-05-06T00:36:32.656Z,99.99
2017-05-06T00:37:33.926Z,99.99
2017-05-06T00:38:35.150Z,99.99
2017-05-06T00:39:36.492Z,99.99
2017-05-06T00:40:37.729Z,99.99
2017-05-06T00:41:38.971Z,99.99
2017-05-06T00:42:40.282Z,99.99
2017-05-06T00:43:41.923Z,99.99
2017-05-06T00:44:43.085Z,99.99
2017-05-06T00:45:44.327Z,99.99
2017-05-06T00:46:45.569Z,99.99
2017-05-06T00:47:46.876Z,99.99
2017-05-06T00:48:48.340Z,99.99
2017-05-06T00:49:49.606Z,99.99
2017-05-06T00:50:50.868Z,99.99
2017-05-06T00:51:52.094Z,99.99
2017-05-06T00:52:53.326Z,99.99
2017-05-06T00:53:54.616Z,99.99
2017-05-06T00:54:55.899Z,99.99
2017-05-06T00:55:57.306Z,99.99
2017-05-06T00:56:58.483Z,99.99
2017-05-06T00:57:59.712Z,99.99
2017-05-06T00:59:00.973Z,99.99
2017-05-06T01:00:02.255Z,99.99
2017-05-06T01:01:03.702Z,99.99
2017-05-06T01:02:04.960Z,99.99
2017-05-06T01:03:06.221Z,99.99
2017-05-06T01:04:07.444Z,99.99
2017-05-06T01:05:08.715Z,99.99
2017-05-06T01:06:10.088Z,99.99
2017-05-06T01:07:11.474Z,99.99
2017-05-06T01:08:12.660Z,99.99
2017-05-06T01:09:13.956Z,99.99
2017-05-06T01:10:15.194Z,99.99
2017-05-06T01:11:16.499Z,99.99
2017-05-06T01:12:17.779Z,99.99
2017-05-06T01:13:19.097Z,99.99
2017-05-06T01:14:20.355Z,99.99
2017-05-06T01:15:21.633Z,99.99
2017-05-06T01:16:22.881Z,99.99
2017-05-06T01:17:24.148Z,99.99
2017-05-06T01:18:25.399Z,99.99
2017-05-06T01:19:26.670Z,99.99
2017-05-06T01:20:28.003Z,99.99
2017-05-06T01:21:29.269Z,99.99
2017-05-06T01:22:30.527Z,99.99
2017-05-06T01:23:31.791Z,99.99
2017-05-06T01:24:33.100Z,99.99
2017-05-06T01:25:34.363Z,99.99
2017-05-06T01:26:35.643Z,99.99
2017-05-06T01:27:36.898Z,99.99
2017-05-06T01:28:38.167Z,99.99
2017-05-06T01:29:39.396Z,99.99
2017-05-06T01:30:40.671Z,99.99
2017-05-06T01:31:41.998Z,99.99
2017-05-06T01:32:43.267Z,99.99
2017-05-06T01:33:44.504Z,99.99
2017-05-06T01:34:45.733Z,99.99
2017-05-06T01:35:47.023Z,99.99
2017-05-06T01:36:48.391Z,99.99
2017-05-06T01:37:49.664Z,99.99
2017-05-06T01:38:50.905Z,99.99
2017-05-06T01:39:52.202Z,99.99
2017-05-06T01:40:53.443Z,99.99
2017-05-06T01:41:54.785Z,99.99
2017-05-06T01:42:56.096Z,99.99
2017-05-06T01:43:57.343Z,99.99
2017-05-06T01:44:58.604Z,99.99
2017-05-06T01:45:59.875Z,99.99
2017-05-06T01:47:01.129Z,99.99
2017-05-06T01:48:02.410Z,99.99
2017-05-06T01:49:03.683Z,99.99
2017-05-06T01:50:04.933Z,99.99
2017-05-06T01:51:06.176Z,99.99
2017-05-06T01:52:07.443Z,99.99
2017-05-06T01:53:08.692Z,99.99
2017-05-06T01:54:10.019Z,99.99
2017-05-06T01:55:11.280Z,99.99
2017-05-06T01:56:12.620Z,99.99
2017-05-06T01:57:13.898Z,99.99
2017-05-06T01:58:15.141Z,99.99
2017-05-06T01:59:16.435Z,99.99
2017-05-06T02:00:17.762Z,99.99
2017-05-06T02:01:19.092Z,99.99
2017-05-06T02:02:20.378Z,99.99
2017-05-06T02:03:21.676Z,99.99
2017-05-06T02:04:22.910Z,99.99
2017-05-06T02:05:24.215Z,99.99
2017-05-06T02:06:25.459Z,99.99
2017-05-06T02:07:26.722Z,99.99
2017-05-06T02:08:27.984Z,99.99
2017-05-06T02:09:29.265Z,99.99
2017-05-06T02:10:30.630Z,99.99
2017-05-06T02:11:31.891Z,99.99
2017-05-06T02:12:33.229Z,99.99
2017-05-06T02:13:34.490Z,99.99
2017-05-06T02:14:35.747Z,99.99
2017-05-06T02:15:37.053Z,99.99
2017-05-06T02:16:38.301Z,99.99
2017-05-06T02:17:39.538Z,99.99
2017-05-06T02:18:40.839Z,99.99
2017-05-06T02:19:42.145Z,99.99
2017-05-06T02:20:43.377Z,99.99
2017-05-06T02:21:44.634Z,99.99
2017-05-06T02:22:45.898Z,99.99
2017-05-06T02:23:47.134Z,99.99
2017-05-06T02:24:48.421Z,99.99
2017-05-06T02:25:49.670Z,99.99
2017-05-06T02:26:50.931Z,99.99
2017-05-06T02:27:52.196Z,99.99
2017-05-06T02:28:53.450Z,99.99
2017-05-06T02:29:54.674Z,99.99
2017-05-06T02:30:55.946Z,99.99
2017-05-06T02:31:57.207Z,99.99
2017-05-06T02:32:58.448Z,99.99
2017-05-06T02:33:59.706Z,99.99
2017-05-06T02:35:00.960Z,99.99
2017-05-06T02:36:02.230Z,99.99
2017-05-06T02:37:03.435Z,99.99
2017-05-06T02:38:04.695Z,99.99
2017-05-06T02:39:06.166Z,99.99
2017-05-06T02:40:07.533Z,99.99
2017-05-06T02:41:08.756Z,99.99
2017-05-06T02:42:10.020Z,99.99
2017-05-06T02:43:11.282Z,99.99
2017-05-06T02:44:12.576Z,99.99
2017-05-06T02:45:13.803Z,99.99
2017-05-06T02:46:15.080Z,99.99
2017-05-06T02:47:16.317Z,99.99
2017-05-06T02:48:17.585Z,99.99
2017-05-06T02:49:18.840Z,99.99
2017-05-06T02:50:20.141Z,99.99
2017-05-06T02:51:21.604Z,99.99
2017-05-06T02:52:22.884Z,99.99
2017-05-06T02:53:24.161Z,99.99
2017-05-06T02:54:25.432Z,99.99
2017-05-06T02:55:26.680Z,99.99
2017-05-06T02:56:27.956Z,99.99
2017-05-06T02:57:29.220Z,99.99
2017-05-06T02:58:30.477Z,99.99
2017-05-06T02:59:31.698Z,99.99
2017-05-06T03:00:33.024Z,99.99
2017-05-06T03:01:34.292Z,99.99
2017-05-06T03:02:35.589Z,99.99
2017-05-06T03:03:36.905Z,99.99
2017-05-06T03:04:38.157Z,99.99
2017-05-06T03:05:39.442Z,99.99
2017-05-06T03:06:40.822Z,99.99
2017-05-06T03:07:42.068Z,99.99
2017-05-06T03:08:43.332Z,99.99
2017-05-06T03:09:44.589Z,99.99
2017-05-06T03:10:45.877Z,99.99
2017-05-06T03:11:47.097Z,99.99
2017-05-06T03:12:48.488Z,99.99
2017-05-06T03:13:49.752Z,99.99
2017-05-06T03:14:51.019Z,99.99
2017-05-06T03:15:52.244Z,99.99
2017-05-06T03:16:53.544Z,99.99
2017-05-06T03:17:54.834Z,99.99
2017-05-06T03:18:56.178Z,99.99
2017-05-06T03:19:57.418Z,99.99
2017-05-06T03:20:58.718Z,99.99
2017-05-06T03:22:00.021Z,99.99
2017-05-06T03:23:01.276Z,99.99
2017-05-06T03:24:02.517Z,99.99
2017-05-06T03:25:03.951Z,99.99
2017-05-06T03:26:05.197Z,99.99
2017-05-06T03:27:06.479Z,99.99
2017-05-06T03:28:07.741Z,99.99
2017-05-06T03:29:08.964Z,99.99
2017-05-06T03:30:10.296Z,99.99
2017-05-06T03:31:11.543Z,99.99
2017-05-06T03:32:12.807Z,99.99
2017-05-06T03:33:14.066Z,99.99
2017-05-06T03:34:15.349Z,99.99
2017-05-06T03:35:16.698Z,99.99
2017-05-06T03:36:17.918Z,99.99
2017-05-06T03:37:19.191Z,99.99
2017-05-06T03:38:20.557Z,99.99
2017-05-06T03:39:21.797Z,99.99
2017-05-06T03:40:23.041Z,99.99
2017-05-06T03:41:24.405Z,99.99
2017-05-06T03:42:25.625Z,99.99
2017-05-06T03:43:26.884Z,99.99
2017-05-06T03:44:28.149Z,99.99
2017-05-06T03:45:29.411Z,99.99
2017-05-06T03:46:30.624Z,99.99
2017-05-06T03:47:31.874Z,99.99
2017-05-06T03:48:33.176Z,99.99
2017-05-06T03:49:34.524Z,99.99
2017-05-06T03:50:35.815Z,99.99
2017-05-06T03:51:37.102Z,99.99
2017-05-06T03:52:38.334Z,99.99
2017-05-06T03:53:39.567Z,99.99
2017-05-06T03:54:40.832Z,99.99
2017-05-06T03:55:42.093Z,99.99
2017-05-06T03:56:43.346Z,99.99
2017-05-06T03:57:44.603Z,99.99
2017-05-06T03:58:45.852Z,99.99
2017-05-06T03:59:47.111Z,99.99
2017-05-06T04:00:48.388Z,99.99
2017-05-06T04:01:49.639Z,99.99
2017-05-06T04:02:50.912Z,99.99
2017-05-06T04:03:52.167Z,99.99
2017-05-06T04:04:53.452Z,99.99
2017-05-06T04:05:54.780Z,99.99
2017-05-06T04:06:56.002Z,99.99
2017-05-06T04:07:57.251Z,99.99
2017-05-06T04:08:58.528Z,99.99
2017-05-06T04:09:59.793Z,99.99
2017-05-06T04:11:01.016Z,99.99
2017-05-06T04:12:02.304Z,99.99
2017-05-06T04:13:03.571Z,99.99
2017-05-06T04:14:04.841Z,99.99
2017-05-06T04:15:06.073Z,99.99
2017-05-06T04:16:07.425Z,99.99
2017-05-06T04:17:08.658Z,99.99
2017-05-06T04:18:09.965Z,99.99
2017-05-06T04:19:11.193Z,99.99
2017-05-06T04:20:12.552Z,99.99
2017-05-06T04:21:13.875Z,99.99
2017-05-06T04:22:15.146Z,99.99
2017-05-06T04:23:16.392Z,99.99
2017-05-06T04:24:17.639Z,99.99
2017-05-06T04:25:18.881Z,99.99
2017-05-06T04:26:20.211Z,99.99
2017-05-06T04:27:21.416Z,99.99
2017-05-06T04:28:22.695Z,99.99
2017-05-06T04:29:23.939Z,99.99
2017-05-06T04:30:25.190Z,99.99
2017-05-06T04:31:26.531Z,99.99
2017-05-06T04:32:27.782Z,99.99
2017-05-06T04:33:29.064Z,99.99
2017-05-06T04:34:30.462Z,99.99
2017-05-06T04:35:31.711Z,99.99
2017-05-06T04:36:32.986Z,99.99
2017-05-06T04:37:34.283Z,99.99
2017-05-06T04:38:35.472Z,99.99
2017-05-06T04:39:36.791Z,99.99
2017-05-06T04:40:38.053Z,99.99
2017-05-06T04:41:39.313Z,99.99
2017-05-06T04:42:40.626Z,99.99
2017-05-06T04:43:41.904Z,99.99
2017-05-06T04:44:43.270Z,99.99
2017-05-06T04:45:44.499Z,99.99
2017-05-06T04:46:45.774Z,99.99
2017-05-06T04:47:47.034Z,99.99
2017-05-06T04:48:48.268Z,99.99
2017-05-06T04:49:49.520Z,99.99
2017-05-06T04:50:50.772Z,99.99
2017-05-06T04:51:52.055Z,99.99
2017-05-06T04:52:53.296Z,99.99
2017-05-06T04:53:54.545Z,99.99
2017-05-06T04:54:55.781Z,99.99
2017-05-06T04:55:57.034Z,99.99
2017-05-06T04:56:58.308Z,99.99
2017-05-06T04:57:59.818Z,99.99
2017-05-06T04:59:01.078Z,99.99
2017-05-06T05:00:02.373Z,99.99
2017-05-06T05:01:03.600Z,99.99
2017-05-06T05:02:04.966Z,99.99
2017-05-06T05:03:06.276Z,99.99
2017-05-06T05:04:07.606Z,99.99
2017-05-06T05:05:08.838Z,99.99
2017-05-06T05:06:10.089Z,99.99
2017-05-06T05:07:11.341Z,99.99
2017-05-06T05:08:12.639Z,99.99
2017-05-06T05:09:13.912Z,99.99
2017-05-06T05:10:15.226Z,99.99
2017-05-06T05:11:16.482Z,99.99
2017-05-06T05:12:17.786Z,99.99
2017-05-06T05:13:19.002Z,99.99
2017-05-06T05:14:20.299Z,99.99
2017-05-06T05:15:21.705Z,99.99
2017-05-06T05:16:22.958Z,99.99
2017-05-06T05:17:24.258Z,99.99
2017-05-06T05:18:25.508Z,99.99
2017-05-06T05:19:26.786Z,99.99
2017-05-06T05:20:28.118Z,99.99
2017-05-06T05:21:29.370Z,99.99
2017-05-06T05:22:30.622Z,99.99
2017-05-06T05:23:31.917Z,99.99
2017-05-06T05:24:33.101Z,99.99
2017-05-06T05:25:34.367Z,99.99
2017-05-06T05:26:35.756Z,99.99
2017-05-06T05:27:36.986Z,99.99
2017-05-06T05:28:38.260Z,99.99
2017-05-06T05:29:39.535Z,99.99
2017-05-06T05:30:40.796Z,99.99
2017-05-06T05:31:42.061Z,99.99
2017-05-06T05:32:43.362Z,99.99
2017-05-06T05:33:44.604Z,99.99
2017-05-06T05:34:45.878Z,99.99
2017-05-06T05:35:47.087Z,99.99
2017-05-06T05:36:48.332Z,99.99
2017-05-06T05:37:49.590Z,99.99
2017-05-06T05:38:50.826Z,99.99
2017-05-06T05:39:52.109Z,99.99
2017-05-06T05:40:53.864Z,99.99
2017-05-06T05:41:54.985Z,99.99
2017-05-06T05:42:56.268Z,99.99
2017-05-06T05:43:57.515Z,99.99
2017-05-06T05:44:58.815Z,99.99
2017-05-06T05:46:00.121Z,99.99
2017-05-06T05:47:01.359Z,99.99
2017-05-06T05:48:02.642Z,99.99
2017-05-06T05:49:03.935Z,99.99
2017-05-06T05:50:05.205Z,99.99
2017-05-06T05:51:06.485Z,99.99
2017-05-06T05:52:07.876Z,99.99
2017-05-06T05:53:09.139Z,99.99
2017-05-06T05:54:10.458Z,99.99
2017-05-06T05:55:11.715Z,99.99
2017-05-06T05:56:12.947Z,99.99
2017-05-06T05:57:14.184Z,99.99
2017-05-06T05:58:15.514Z,99.99
2017-05-06T05:59:16.809Z,99.99
2017-05-06T06:00:18.020Z,99.99
2017-05-06T06:01:19.315Z,99.99
2017-05-06T06:02:20.620Z,99.99
2017-05-06T06:03:21.870Z,99.99
2017-05-06T06:04:23.157Z,99.99
2017-05-06T06:05:24.413Z,99.99
2017-05-06T06:06:25.648Z,99.99
2017-05-06T06:07:26.986Z,99.99
2017-05-06T06:08:28.318Z,99.99
2017-05-06T06:09:29.615Z,99.99
2017-05-06T06:10:30.874Z,99.99
2017-05-06T06:11:32.123Z,99.99
2017-05-06T06:12:33.380Z,99.99
2017-05-06T06:13:34.620Z,99.99
2017-05-06T06:14:35.973Z,99.99
2017-05-06T06:15:37.209Z,96.56
2017-05-06T06:16:38.476Z,88.24
2017-05-06T06:17:39.743Z,90.48
2017-05-06T06:18:40.986Z,84.22
2017-05-06T06:19:42.319Z,79.43
2017-05-06T06:20:43.593Z,75.73
2017-05-06T06:21:44.849Z,72.03
2017-05-06T06:22:46.125Z,73.19
2017-05-06T06:23:47.364Z,72.68
2017-05-06T06:24:48.658Z,67.73
2017-05-06T06:25:49.919Z,65.27
2017-05-06T06:26:51.164Z,62.87
2017-05-06T06:27:52.444Z,61.75
2017-05-06T06:28:53.717Z,60.75
2017-05-06T06:29:54.970Z,59.54
2017-05-06T06:30:56.250Z,58.61
2017-05-06T06:31:57.514Z,57.93
2017-05-06T06:32:58.765Z,56.04
2017-05-06T06:34:00.057Z,54.89
2017-05-06T06:35:01.337Z,54.69
2017-05-06T06:36:02.548Z,54.6
2017-05-06T06:37:03.861Z,54.69
2017-05-06T06:38:05.184Z,56.04
2017-05-06T06:39:06.437Z,54.77
2017-05-06T06:40:07.713Z,55.44
2017-05-06T06:41:08.991Z,55.24
2017-05-06T06:42:10.252Z,55.82
2017-05-06T06:43:11.501Z,55.56
2017-05-06T06:44:12.791Z,53.25
2017-05-06T06:45:14.077Z,52.77
2017-05-06T06:46:15.329Z,53.06
2017-05-06T06:47:16.607Z,53.09
2017-05-06T06:48:17.878Z,52.15
2017-05-06T06:49:19.130Z,51.29
2017-05-06T06:50:20.532Z,50.45
2017-05-06T06:51:21.835Z,49.77
2017-05-06T06:52:23.092Z,49.02
2017-05-06T06:53:24.359Z,48.08
2017-05-06T06:54:25.630Z,47.31
2017-05-06T06:55:26.929Z,46.66
2017-05-06T06:56:28.148Z,46.56
2017-05-06T06:57:29.432Z,46.4
2017-05-06T06:58:30.678Z,44.1
2017-05-06T06:59:31.943Z,43.62
2017-05-06T07:00:33.202Z,42.48
2017-05-06T07:01:34.554Z,41.93
2017-05-06T07:02:35.863Z,40.77
2017-05-06T07:03:37.122Z,40.28
2017-05-06T07:04:38.402Z,39.82
2017-05-06T07:05:39.691Z,41.3
2017-05-06T07:06:40.929Z,42.35
2017-05-06T07:07:42.325Z,43.48
2017-05-06T07:08:43.593Z,44.73
2017-05-06T07:09:44.871Z,44.25
2017-05-06T07:10:46.177Z,45.36
2017-05-06T07:11:47.448Z,47.08
2017-05-06T07:12:48.738Z,48.43
2017-05-06T07:13:50.012Z,47.75
2017-05-06T07:14:51.347Z,46.5
2017-05-06T07:15:52.738Z,47.65
2017-05-06T07:16:54.037Z,47.75
2017-05-06T07:17:55.268Z,48.61
2017-05-06T07:18:56.525Z,48.03
2017-05-06T07:19:57.805Z,47.49
2017-05-06T07:20:59.051Z,46.52
2017-05-06T07:22:00.360Z,46.78
2017-05-06T07:23:01.650Z,47.39
2017-05-06T07:24:02.876Z,46.45
2017-05-06T07:25:04.149Z,45.51
2017-05-06T07:26:05.395Z,44.81
2017-05-06T07:27:06.693Z,45.46
2017-05-06T07:28:07.920Z,45.56
2017-05-06T07:29:09.186Z,45
2017-05-06T07:30:10.462Z,44.64
2017-05-06T07:31:11.693Z,44.83
2017-05-06T07:32:13.014Z,44.46
2017-05-06T07:33:14.308Z,43.29
2017-05-06T07:34:15.547Z,44.35
2017-05-06T07:35:16.787Z,45.07
2017-05-06T07:36:18.138Z,46.4
2017-05-06T07:37:19.398Z,47
2017-05-06T07:38:20.680Z,46.55
2017-05-06T07:39:22.021Z,45.41
2017-05-06T07:40:23.292Z,44.81
2017-05-06T07:41:24.547Z,45.65
2017-05-06T07:42:25.796Z,47.44
2017-05-06T07:43:27.079Z,48.76
2017-05-06T07:44:28.439Z,51.43
2017-05-06T07:45:29.783Z,52.46
2017-05-06T07:46:31.055Z,53.87
2017-05-06T07:47:32.311Z,53.78
2017-05-06T07:48:33.565Z,54.16
2017-05-06T07:49:34.829Z,53.54
2017-05-06T07:50:36.175Z,51.38
2017-05-06T07:51:37.535Z,48.03
2017-05-06T07:52:38.714Z,46.45
2017-05-06T07:53:39.984Z,44.56
2017-05-06T07:54:41.249Z,43.5
2017-05-06T07:55:42.507Z,42.36
2017-05-06T07:56:43.776Z,40.94
2017-05-06T07:57:45.035Z,39.87
2017-05-06T07:58:46.285Z,40.72
2017-05-06T07:59:47.530Z,41.78
2017-05-06T08:00:48.812Z,43.48
2017-05-06T08:01:50.084Z,45.34
2017-05-06T08:02:51.323Z,47.36
2017-05-06T08:03:52.576Z,45.87
2017-05-06T08:04:53.860Z,44.18
2017-05-06T08:05:55.148Z,42.36
2017-05-06T08:06:56.425Z,41.52
2017-05-06T08:07:57.705Z,40.09
2017-05-06T08:08:58.970Z,39.04
2017-05-06T08:10:00.247Z,39.12
2017-05-06T08:11:01.677Z,39.49
2017-05-06T08:12:02.943Z,41.02
2017-05-06T08:13:04.218Z,41.02
2017-05-06T08:14:05.475Z,40.17
2017-05-06T08:15:06.749Z,39.86
2017-05-06T08:16:08.100Z,40.07
2017-05-06T08:17:09.356Z,40.92
2017-05-06T08:18:10.619Z,41.2
2017-05-06T08:19:11.922Z,39.87
2017-05-06T08:20:13.175Z,40.63
2017-05-06T08:21:14.487Z,40.72
2017-05-06T08:22:15.740Z,41.28
2017-05-06T08:23:16.999Z,42.44
2017-05-06T08:24:18.245Z,43.55
2017-05-06T08:25:19.529Z,43.31
2017-05-06T08:26:20.868Z,42.08
2017-05-06T08:27:22.146Z,41.03
2017-05-06T08:28:23.431Z,39.7
2017-05-06T08:29:24.701Z,39.51
2017-05-06T08:30:25.960Z,39.51
2017-05-06T08:31:27.224Z,39.78
2017-05-06T08:32:28.502Z,40.82
2017-05-06T08:33:29.830Z,41.02
2017-05-06T08:34:31.009Z,40.8
2017-05-06T08:35:32.287Z,42.03
2017-05-06T08:36:33.530Z,43.38
2017-05-06T08:37:34.832Z,43.19
2017-05-06T08:38:36.130Z,43.29
2017-05-06T08:39:37.363Z,43.55
2017-05-06T08:40:38.635Z,43.75
2017-05-06T08:41:39.943Z,43.67
2017-05-06T08:42:41.197Z,42.73
2017-05-06T08:43:42.552Z,41.33
2017-05-06T08:44:43.808Z,38.83
2017-05-06T08:45:45.092Z,37.71
2017-05-06T08:46:46.377Z,35.52
2017-05-06T08:47:47.693Z,34.57
2017-05-06T08:48:48.983Z,34.28
2017-05-06T08:49:50.252Z,33.91
2017-05-06T08:50:51.538Z,32.57
2017-05-06T08:51:52.782Z,32.02
2017-05-06T08:52:54.074Z,31.24
2017-05-06T08:53:55.316Z,31.15
2017-05-06T08:54:56.579Z,31.13
2017-05-06T08:55:57.848Z,31.34
2017-05-06T08:56:59.143Z,30.11
2017-05-06T08:58:00.453Z,29.25
2017-05-06T08:59:01.751Z,28.96
2017-05-06T09:00:03.009Z,28.47
2017-05-06T09:01:04.286Z,29.14
2017-05-06T09:02:05.532Z,29.82
2017-05-06T09:03:06.891Z,29.14
2017-05-06T09:04:08.131Z,28.76
2017-05-06T09:05:09.403Z,28.93
2017-05-06T09:06:10.692Z,29.24
2017-05-06T09:07:11.967Z,28.85
2017-05-06T09:08:13.233Z,27.69
2017-05-06T09:09:14.598Z,28.38
2017-05-06T09:10:15.835Z,27.62
2017-05-06T09:11:17.113Z,26.36
2017-05-06T09:12:18.391Z,26.67
2017-05-06T09:13:19.670Z,26.19
2017-05-06T09:14:21.004Z,24.76
2017-05-06T09:15:22.360Z,24.26
2017-05-06T09:16:23.647Z,24.54
2017-05-06T09:17:24.960Z,25.13
2017-05-06T09:18:26.219Z,25.03
2017-05-06T09:19:27.478Z,24.27
2017-05-06T09:20:28.933Z,23.6
2017-05-06T09:21:30.195Z,22.9
2017-05-06T09:22:31.453Z,23.19
2017-05-06T09:23:32.750Z,23.1
2017-05-06T09:24:34.030Z,23.77
2017-05-06T09:25:35.376Z,23.67
2017-05-06T09:26:36.669Z,23.85
2017-05-06T09:27:37.937Z,24.54
2017-05-06T09:28:39.235Z,24.26
2017-05-06T09:29:40.506Z,23.86
2017-05-06T09:30:41.798Z,23.4
2017-05-06T09:31:43.195Z,22.74
2017-05-06T09:32:44.427Z,21.88
2017-05-06T09:33:45.699Z,21.48
2017-05-06T09:34:47.013Z,21.97
2017-05-06T09:35:48.272Z,22.44
2017-05-06T09:36:49.601Z,22.14
2017-05-06T09:37:50.944Z,21.86
2017-05-06T09:38:52.236Z,22.07
2017-05-06T09:39:53.521Z,21.19
2017-05-06T09:40:54.808Z,20.32
2017-05-06T09:41:56.075Z,20.32
2017-05-06T09:42:57.409Z,20.8
2017-05-06T09:43:58.656Z,21.36
2017-05-06T09:45:00.040Z,21.75
2017-05-06T09:46:01.319Z,22.34
2017-05-06T09:47:02.564Z,22.62
2017-05-06T09:48:03.918Z,22.79
2017-05-06T09:49:05.146Z,22.8
2017-05-06T09:50:06.412Z,22.62
2017-05-06T09:51:07.696Z,21.96
2017-05-06T09:52:09.021Z,21
2017-05-06T09:53:10.279Z,21.08
2017-05-06T09:54:11.545Z,21.29
2017-05-06T09:55:12.806Z,21.67
2017-05-06T09:56:14.075Z,22.16
2017-05-06T09:57:15.381Z,22.24
2017-05-06T09:58:16.629Z,22.41
2017-05-06T09:59:17.910Z,24.13
2017-05-06T10:00:19.197Z,24.63
2017-05-06T10:01:20.521Z,24.35
2017-05-06T10:02:21.895Z,22.9
2017-05-06T10:03:23.174Z,23.66
2017-05-06T10:04:24.445Z,23.96
2017-05-06T10:05:25.742Z,24.54
2017-05-06T10:06:27.099Z,23.86
2017-05-06T10:07:28.391Z,23.69
2017-05-06T10:08:29.645Z,22.63
2017-05-06T10:09:30.934Z,22.73
2017-05-06T10:10:32.194Z,22.55
2017-05-06T10:11:33.450Z,21
2017-05-06T10:12:34.702Z,20.14
2017-05-06T10:13:36.004Z,21.29
2017-05-06T10:14:37.254Z,21.1
2017-05-06T10:15:38.502Z,20.61
2017-05-06T10:16:39.772Z,21.49
2017-05-06T10:17:41.169Z,20.9
2017-05-06T10:18:42.536Z,20.51
2017-05-06T10:19:43.915Z,21.15
2017-05-06T10:20:45.207Z,22.22
2017-05-06T10:21:46.726Z,22.72
2017-05-06T10:22:48.092Z,22.02
2017-05-06T10:23:49.354Z,23.17
2017-05-06T10:24:50.654Z,23.08
2017-05-06T10:25:51.931Z,22.99
2017-05-06T10:26:53.208Z,22.41
2017-05-06T10:27:54.523Z,22.89
2017-05-06T10:28:55.796Z,23.63
2017-05-06T10:29:57.079Z,24.13
2017-05-06T10:30:58.348Z,23.65
2017-05-06T10:31:59.631Z,22.66
2017-05-06T10:33:00.969Z,24.1
2017-05-06T10:34:02.307Z,25.92
2017-05-06T10:35:03.582Z,26.95
2017-05-06T10:36:04.875Z,28.3
2017-05-06T10:37:06.145Z,28.96
2017-05-06T10:38:07.457Z,29.83
2017-05-06T10:39:08.727Z,31.05
2017-05-06T10:40:10.091Z,32.1
2017-05-06T10:41:11.307Z,33.63
2017-05-06T10:42:12.604Z,33.25
2017-05-06T10:43:13.853Z,33.63
2017-05-06T10:44:15.135Z,34.12
2017-05-06T10:45:16.466Z,34.68
2017-05-06T10:46:17.763Z,35.53
2017-05-06T10:47:19.044Z,36.3
2017-05-06T10:48:20.335Z,37.25
2017-05-06T10:49:21.602Z,36.4
2017-05-06T10:50:22.880Z,36.19
2017-05-06T10:51:24.261Z,36.48
2017-05-06T10:52:25.629Z,36.77
2017-05-06T10:53:26.848Z,35.53
2017-05-06T10:54:28.134Z,35.9
2017-05-06T10:55:29.378Z,36.27
2017-05-06T10:56:30.662Z,37.33
2017-05-06T10:57:32.035Z,37.12
2017-05-06T10:58:33.315Z,37.79
2017-05-06T10:59:34.562Z,38.28
2017-05-06T11:00:35.844Z,38.54
2017-05-06T11:01:37.241Z,38.93
2017-05-06T11:02:38.535Z,39.12
2017-05-06T11:03:39.819Z,40.47
2017-05-06T11:04:41.090Z,39.61
2017-05-06T11:05:42.383Z,39.03
2017-05-06T11:06:43.663Z,39.99
2017-05-06T11:07:44.936Z,39.78
2017-05-06T11:08:46.280Z,40.74
2017-05-06T11:09:47.628Z,40.36
2017-05-06T11:10:48.840Z,39.99
2017-05-06T11:11:50.091Z,39.51
2017-05-06T11:12:51.352Z,39.22
2017-05-06T11:13:52.747Z,39.59
2017-05-06T11:14:54.048Z,40.84
2017-05-06T11:15:55.295Z,40.91
2017-05-06T11:16:56.551Z,42.07
2017-05-06T11:17:57.813Z,42.65
2017-05-06T11:18:59.090Z,42.46
2017-05-06T11:20:00.397Z,42.19
2017-05-06T11:21:01.682Z,41.41
2017-05-06T11:22:02.971Z,41.53
2017-05-06T11:23:04.278Z,41.24
2017-05-06T11:24:05.581Z,40.66
2017-05-06T11:25:06.846Z,40.84
2017-05-06T11:26:08.171Z,40.84
2017-05-06T11:27:09.414Z,41.89
2017-05-06T11:28:10.692Z,41.61
2017-05-06T11:29:11.980Z,41.97
2017-05-06T11:30:13.349Z,41.99
2017-05-06T11:31:14.759Z,42.16
2017-05-06T11:32:15.989Z,41.89
2017-05-06T11:33:17.246Z,42.19
2017-05-06T11:34:18.513Z,41.97
2017-05-06T11:35:19.780Z,42.19
2017-05-06T11:36:21.065Z,42.28
2017-05-06T11:37:22.401Z,41.41
2017-05-06T11:38:23.714Z,41.51
2017-05-06T11:39:24.933Z,42.07
2017-05-06T11:40:26.197Z,42.84
2017-05-06T11:41:27.493Z,43.13
2017-05-06T11:42:28.733Z,42.55
2017-05-06T11:43:30.077Z,42.63
2017-05-06T11:44:31.325Z,43.68
2017-05-06T11:45:32.589Z,43.66
2017-05-06T11:46:33.845Z,45.1
2017-05-06T11:47:35.165Z,44.41
2017-05-06T11:48:36.448Z,44.82
2017-05-06T11:49:37.957Z,44.91
2017-05-06T11:50:39.280Z,44.89
2017-05-06T11:51:40.522Z,45.66
2017-05-06T11:52:41.793Z,45.37
2017-05-06T11:53:43.053Z,45.56
2017-05-06T11:54:44.413Z,45.66
2017-05-06T11:55:45.747Z,45.28
2017-05-06T11:56:46.948Z,45.29
2017-05-06T11:57:48.223Z,45.1
2017-05-06T11:58:49.484Z,44.17
2017-05-06T11:59:50.772Z,43.4
2017-05-06T12:00:52.166Z,43.3
2017-05-06T12:01:53.358Z,43.97
2017-05-06T12:02:54.632Z,43.59
2017-05-06T12:03:55.903Z,43.78
2017-05-06T12:04:57.186Z,43.59
2017-05-06T12:05:58.627Z,44.05
2017-05-06T12:06:59.906Z,44.05
2017-05-06T12:08:01.161Z,43.85
2017-05-06T12:09:02.410Z,43.47
2017-05-06T12:10:03.677Z,44.14
2017-05-06T12:11:04.945Z,43.95
2017-05-06T12:12:06.280Z,44.53
2017-05-06T12:13:07.508Z,44.05
2017-05-06T12:14:08.887Z,44.43
2017-05-06T12:15:10.154Z,45.08
2017-05-06T12:16:11.449Z,45.18
2017-05-06T12:17:12.696Z,44.31
2017-05-06T12:18:14.046Z,43.45
2017-05-06T12:19:15.360Z,44.58
2017-05-06T12:20:16.676Z,45.35
2017-05-06T12:21:17.934Z,44.77
2017-05-06T12:22:19.189Z,45.15
2017-05-06T12:23:20.462Z,45.73
2017-05-06T12:24:21.721Z,46.02
2017-05-06T12:25:22.986Z,46.41
2017-05-06T12:26:24.266Z,46.21
2017-05-06T12:27:25.537Z,45.56
2017-05-06T12:28:26.793Z,45.95
2017-05-06T12:29:28.050Z,45.47
2017-05-06T12:30:29.306Z,45.18
2017-05-06T12:31:30.593Z,45.56
2017-05-06T12:32:31.862Z,45.18
2017-05-06T12:33:33.146Z,45.08
2017-05-06T12:34:34.416Z,45.37
2017-05-06T12:35:35.672Z,44.79
2017-05-06T12:36:36.937Z,45.08
2017-05-06T12:37:38.227Z,45.76
2017-05-06T12:38:39.474Z,45.66
2017-05-06T12:39:40.780Z,46.23
2017-05-06T12:40:42.052Z,45.37
2017-05-06T12:41:43.391Z,44.79
2017-05-06T12:42:44.803Z,43.45
2017-05-06T12:43:46.065Z,44.41
2017-05-06T12:44:47.344Z,45.25
2017-05-06T12:45:48.619Z,45.25
2017-05-06T12:46:49.880Z,45.76
2017-05-06T12:47:51.140Z,45.66
2017-05-06T12:48:52.496Z,44.99
2017-05-06T12:49:53.855Z,45.08
2017-05-06T12:50:55.084Z,44.62
2017-05-06T12:51:56.471Z,43.85
2017-05-06T12:52:57.761Z,43.66
2017-05-06T12:53:59.015Z,43.4
2017-05-06T12:55:00.296Z,43.11
2017-05-06T12:56:01.575Z,43.49
2017-05-06T12:57:02.849Z,43.11
2017-05-06T12:58:04.077Z,42.8
2017-05-06T12:59:05.357Z,43.66
2017-05-06T13:00:06.635Z,43.37
2017-05-06T13:01:07.930Z,43.16
2017-05-06T13:02:09.147Z,43.76
2017-05-06T13:03:10.408Z,43.85
2017-05-06T13:04:11.685Z,43.76
2017-05-06T13:05:13.010Z,43.47
2017-05-06T13:06:14.415Z,43.28
2017-05-06T13:07:15.709Z,43.66
2017-05-06T13:08:16.995Z,43.4
2017-05-06T13:09:18.269Z,43.2
2017-05-06T13:10:19.559Z,43.28
2017-05-06T13:11:20.908Z,42.7